createdAt,value
2022-09-09T00:01:58.241Z,17.33
2022-09-09T00:04:34.201Z,17.33
2022-09-09T00:07:09.441Z,17.31
2022-09-09T00:09:46.133Z,17.29
2022-09-09T00:12:19.496Z,17.28
2022-09-09T00:14:57.754Z,17.26
2022-09-09T00:17:40.815Z,17.24
2022-09-09T00:20:18.296Z,17.22
2022-09-09T00:22:54.012Z,17.18
2022-09-09T00:25:32.133Z,17.17
2022-09-09T00:28:02.157Z,17.15
2022-09-09T00:30:38.901Z,17.12
2022-09-09T00:33:16.127Z,17.09
2022-09-09T00:35:50.941Z,17.08
2022-09-09T00:38:27.747Z,17.06
2022-09-09T00:41:02.808Z,17.03
2022-09-09T00:43:34.482Z,17.02
2022-09-09T00:46:27.612Z,16.99
2022-09-09T00:49:08.526Z,16.96
2022-09-09T00:51:51.789Z,16.93
2022-09-09T00:54:36.845Z,16.90
2022-09-09T00:57:17.022Z,16.86
2022-09-09T00:59:52.147Z,16.83
2022-09-09T01:02:31.559Z,16.83
2022-09-09T01:05:08.943Z,16.81
2022-09-09T01:07:41.266Z,16.79
2022-09-09T01:10:19.071Z,16.77
2022-09-09T01:12:51.265Z,16.74
2022-09-09T01:15:26.774Z,16.73
2022-09-09T01:18:04.158Z,16.72
2022-09-09T01:20:42.644Z,16.70
2022-09-09T01:23:30.090Z,16.67
2022-09-09T01:26:28.852Z,16.65
2022-09-09T01:28:58.915Z,16.64
2022-09-09T01:31:33.611Z,16.63
2022-09-09T01:34:03.319Z,16.62
2022-09-09T01:36:38.827Z,16.60
2022-09-09T01:39:08.642Z,16.59
2022-09-09T01:41:42.044Z,16.58
2022-09-09T01:44:12.341Z,16.56
2022-09-09T01:46:42.459Z,16.56
2022-09-09T01:49:13.909Z,16.54
2022-09-09T01:51:46.625Z,16.53
2022-09-09T01:54:16.388Z,16.52
2022-09-09T01:57:01.254Z,16.53
2022-09-09T01:59:58.713Z,16.51
2022-09-09T02:02:34.251Z,16.51
2022-09-09T02:05:13.143Z,16.51
2022-09-09T02:07:45.576Z,16.50
2022-09-09T02:10:21.129Z,16.50
2022-09-09T02:12:59.821Z,16.50
2022-09-09T02:15:35.423Z,16.48
2022-09-09T02:18:11.205Z,16.46
2022-09-09T02:20:42.224Z,16.43
2022-09-09T02:23:14.763Z,16.43
2022-09-09T02:25:45.627Z,16.43
2022-09-09T02:28:21.560Z,16.42
2022-09-09T02:30:56.383Z,16.39
2022-09-09T02:33:29.343Z,16.39
2022-09-09T02:36:04.569Z,16.37
2022-09-09T02:38:40.859Z,16.36
2022-09-09T02:41:10.750Z,16.34
2022-09-09T02:43:43.016Z,16.36
2022-09-09T02:46:29.210Z,16.35
2022-09-09T02:49:04.818Z,16.36
2022-09-09T02:51:44.512Z,16.36
2022-09-09T02:54:20.862Z,16.38
2022-09-09T02:56:55.412Z,16.38
2022-09-09T02:59:30.436Z,16.38
2022-09-09T03:02:00.221Z,16.37
2022-09-09T03:04:30.099Z,16.37
2022-09-09T03:07:00.122Z,16.37
2022-09-09T03:09:29.888Z,16.34
2022-09-09T03:11:59.997Z,16.33
2022-09-09T03:14:32.279Z,16.33
2022-09-09T03:17:03.484Z,16.32
2022-09-09T03:19:34.045Z,16.31
2022-09-09T03:22:05.574Z,16.32
2022-09-09T03:24:35.264Z,16.32
2022-09-09T03:27:04.927Z,16.33
2022-09-09T03:29:37.222Z,16.34
2022-09-09T03:32:07.045Z,16.33
2022-09-09T03:34:38.143Z,16.36
2022-09-09T03:37:07.868Z,16.36
2022-09-09T03:39:37.611Z,16.37
2022-09-09T03:42:07.747Z,16.37
2022-09-09T03:44:41.059Z,16.38
2022-09-09T03:47:14.184Z,16.38
2022-09-09T03:49:43.876Z,16.39
2022-09-09T03:52:14.152Z,16.40
2022-09-09T03:54:44.085Z,16.38
2022-09-09T03:57:14.933Z,16.38
2022-09-09T03:59:47.578Z,16.39
2022-09-09T04:02:17.321Z,16.40
2022-09-09T04:04:47.045Z,16.39
2022-09-09T04:07:17.027Z,16.39
2022-09-09T04:09:47.034Z,16.39
2022-09-09T04:12:17.805Z,16.38
2022-09-09T04:14:50.133Z,16.37
2022-09-09T04:17:19.959Z,16.36
2022-09-09T04:19:49.618Z,16.34
2022-09-09T04:22:19.548Z,16.33
2022-09-09T04:24:49.229Z,16.32
2022-09-09T04:27:19.004Z,16.33
2022-09-09T04:29:51.330Z,16.30
2022-09-09T04:32:20.994Z,16.30
2022-09-09T04:34:50.700Z,16.32
2022-09-09T04:37:20.362Z,16.32
2022-09-09T04:39:50.486Z,16.32
2022-09-09T04:42:20.743Z,16.33
2022-09-09T04:44:53.037Z,16.33
2022-09-09T04:47:22.728Z,16.32
2022-09-09T04:49:53.155Z,16.32
2022-09-09T04:52:22.835Z,16.32
2022-09-09T04:54:53.380Z,16.33
2022-09-09T04:57:23.152Z,16.34
2022-09-09T04:59:55.484Z,16.35
2022-09-09T05:02:28.585Z,16.36
2022-09-09T05:05:01.234Z,16.37
2022-09-09T05:07:32.405Z,16.38
2022-09-09T05:10:02.352Z,16.41
2022-09-09T05:12:32.547Z,16.42
2022-09-09T05:15:04.963Z,16.43
2022-09-09T05:17:34.992Z,16.44
2022-09-09T05:20:10.204Z,16.46
2022-09-09T05:22:41.547Z,16.48
2022-09-09T05:25:12.177Z,16.47
2022-09-09T05:27:41.872Z,16.47
2022-09-09T05:30:15.881Z,16.48
2022-09-09T05:32:45.576Z,16.46
2022-09-09T05:35:15.260Z,16.46
2022-09-09T05:37:44.944Z,16.48
2022-09-09T05:40:14.767Z,16.48
2022-09-09T05:42:44.719Z,16.49
2022-09-09T05:45:17.121Z,16.49
2022-09-09T05:47:46.774Z,16.47
2022-09-09T05:50:17.268Z,16.47
2022-09-09T05:52:47.173Z,16.48
2022-09-09T05:55:17.057Z,16.49
2022-09-09T05:57:53.067Z,16.51
2022-09-09T06:00:25.448Z,16.52
2022-09-09T06:02:56.064Z,16.55
2022-09-09T06:05:29.690Z,16.56
2022-09-09T06:07:59.553Z,16.57
2022-09-09T06:10:29.308Z,16.57
2022-09-09T06:12:59.099Z,16.58
2022-09-09T06:15:31.991Z,16.60
2022-09-09T06:18:01.667Z,16.63
2022-09-09T06:20:31.743Z,16.65
2022-09-09T06:23:01.908Z,16.68
2022-09-09T06:25:31.815Z,16.72
2022-09-09T06:28:01.574Z,16.73
2022-09-09T06:30:33.900Z,16.74
2022-09-09T06:33:03.703Z,16.76
2022-09-09T06:35:33.371Z,16.79
2022-09-09T06:38:03.257Z,16.82
2022-09-09T06:40:33.062Z,16.83
2022-09-09T06:43:04.680Z,16.85
2022-09-09T06:45:37.752Z,16.88
2022-09-09T06:48:07.593Z,16.92
2022-09-09T06:50:37.370Z,16.94
2022-09-09T06:53:07.099Z,16.95
2022-09-09T06:55:36.790Z,16.97
2022-09-09T06:58:06.524Z,16.99
2022-09-09T07:00:39.893Z,17.01
2022-09-09T07:03:09.705Z,17.03
2022-09-09T07:05:39.362Z,17.04
2022-09-09T07:08:09.821Z,17.09
2022-09-09T07:10:39.508Z,17.10
2022-09-09T07:13:09.274Z,17.14
2022-09-09T07:15:41.781Z,17.21
2022-09-09T07:18:11.699Z,17.31
2022-09-09T07:20:41.376Z,17.40
2022-09-09T07:23:11.121Z,17.47
2022-09-09T07:25:40.859Z,17.53
2022-09-09T07:28:10.808Z,17.59
2022-09-09T07:30:43.874Z,17.62
2022-09-09T07:33:13.837Z,17.62
2022-09-09T07:35:43.916Z,17.63
2022-09-09T07:38:13.589Z,17.64
2022-09-09T07:40:43.290Z,17.68
2022-09-09T07:43:17.142Z,17.68
2022-09-09T07:45:51.261Z,17.70
2022-09-09T07:48:20.947Z,17.71
2022-09-09T07:50:50.610Z,17.74
2022-09-09T07:53:21.063Z,17.78
2022-09-09T07:55:50.750Z,17.82
2022-09-09T07:58:20.406Z,17.85
2022-09-09T08:00:55.019Z,17.88
2022-09-09T08:03:25.104Z,17.91
2022-09-09T08:05:54.926Z,17.93
2022-09-09T08:08:24.605Z,17.96
2022-09-09T08:10:54.261Z,18.00
2022-09-09T08:13:24.306Z,18.03
2022-09-09T08:15:56.904Z,18.15
2022-09-09T08:18:26.695Z,18.30
2022-09-09T08:20:56.382Z,18.43
2022-09-09T08:23:27.028Z,18.57
2022-09-09T08:25:56.711Z,18.72
2022-09-09T08:28:26.527Z,18.86
2022-09-09T08:30:58.887Z,18.96
2022-09-09T08:33:28.682Z,19.06
2022-09-09T08:35:58.417Z,19.12
2022-09-09T08:38:29.699Z,19.18
2022-09-09T08:41:11.072Z,19.24
2022-09-09T08:43:40.786Z,19.28
2022-09-09T08:46:19.233Z,19.31
2022-09-09T08:48:57.775Z,19.34
2022-09-09T08:51:31.659Z,19.38
2022-09-09T08:54:03.446Z,19.42
2022-09-09T08:56:37.195Z,19.45
2022-09-09T08:59:08.090Z,19.48
2022-09-09T09:01:53.937Z,19.48
2022-09-09T09:04:37.883Z,19.50
2022-09-09T09:07:22.236Z,19.53
2022-09-09T09:10:01.431Z,19.58
2022-09-09T09:12:33.946Z,19.60
2022-09-09T09:15:03.937Z,19.66
2022-09-09T09:17:38.729Z,19.72
2022-09-09T09:20:16.264Z,19.75
2022-09-09T09:22:52.519Z,19.79
2022-09-09T09:25:24.315Z,19.80
2022-09-09T09:28:02.447Z,19.81
2022-09-09T09:30:38.338Z,19.83
2022-09-09T09:33:21.266Z,19.86
2022-09-09T09:35:52.812Z,19.90
2022-09-09T09:41:13.885Z,19.94
2022-09-09T09:43:46.335Z,19.99
2022-09-09T09:46:24.920Z,20.08
2022-09-09T09:49:03.960Z,20.12
2022-09-09T09:51:36.683Z,20.16
2022-09-09T09:54:29.199Z,20.18
2022-09-09T09:56:59.413Z,20.18
2022-09-09T09:59:40.679Z,20.21
2022-09-09T10:02:18.944Z,20.16
2022-09-09T10:04:51.589Z,20.13
2022-09-09T10:07:23.335Z,20.12
2022-09-09T10:09:57.658Z,20.11
2022-09-09T10:12:39.345Z,20.10
2022-09-09T10:15:26.369Z,20.08
2022-09-09T10:18:05.514Z,20.06
2022-09-09T10:20:46.877Z,20.06
2022-09-09T10:23:31.059Z,20.04
2022-09-09T10:26:16.526Z,20.03
2022-09-09T10:29:11.412Z,20.01
2022-09-09T10:31:49.507Z,20.01
2022-09-09T10:34:48.220Z,20.02
2022-09-09T10:37:40.684Z,20.04
2022-09-09T10:40:25.802Z,20.10
2022-09-09T10:42:59.541Z,20.15
2022-09-09T10:45:39.028Z,20.17
2022-09-09T10:48:24.105Z,20.21
2022-09-09T10:51:05.279Z,20.31
2022-09-09T10:53:55.173Z,20.45
2022-09-09T10:56:27.635Z,20.60
2022-09-09T10:59:02.399Z,20.75
2022-09-09T11:01:38.245Z,20.86
2022-09-09T11:04:20.337Z,20.96
2022-09-09T11:06:55.128Z,21.00
2022-09-09T11:09:32.864Z,21.01
2022-09-09T11:12:05.482Z,21.04
2022-09-09T11:14:39.877Z,21.10
2022-09-09T11:17:15.531Z,21.22
2022-09-09T11:19:46.752Z,21.30
2022-09-09T11:22:31.057Z,21.33
2022-09-09T11:25:09.622Z,21.35
2022-09-09T11:27:47.968Z,21.36
2022-09-09T11:30:44.559Z,21.37
2022-09-09T11:33:31.315Z,21.39
2022-09-09T11:36:27.875Z,21.41
2022-09-09T11:39:06.240Z,21.38
2022-09-09T11:41:41.823Z,21.38
2022-09-09T11:44:17.477Z,21.41
2022-09-09T11:46:53.680Z,21.45
2022-09-09T11:49:32.539Z,21.50
2022-09-09T11:52:02.249Z,21.51
2022-09-09T11:54:34.495Z,21.48
2022-09-09T11:57:27.468Z,21.45
2022-09-09T12:00:01.149Z,21.45
2022-09-09T12:02:32.998Z,21.46
2022-09-09T12:05:06.745Z,21.44
2022-09-09T12:07:40.720Z,21.46
2022-09-09T12:10:27.981Z,21.49
2022-09-09T12:12:57.782Z,21.48
2022-09-09T12:15:32.855Z,21.47
2022-09-09T12:18:03.993Z,21.47
2022-09-09T12:20:39.954Z,21.44
2022-09-09T12:23:28.553Z,21.46
2022-09-09T12:26:14.787Z,21.42
2022-09-09T12:28:54.575Z,21.40
2022-09-09T12:31:31.751Z,21.42
2022-09-09T12:34:13.653Z,21.50
2022-09-09T12:36:49.610Z,21.57
2022-09-09T12:39:33.041Z,21.67
2022-09-09T12:42:05.389Z,21.76
2022-09-09T12:44:36.118Z,21.85
2022-09-09T12:47:08.824Z,21.90
2022-09-09T12:49:42.791Z,21.92
2022-09-09T12:52:20.870Z,21.92
2022-09-09T12:54:52.656Z,21.91
2022-09-09T12:57:22.499Z,21.86
2022-09-09T12:59:52.307Z,21.82
2022-09-09T13:02:26.889Z,21.82
2022-09-09T13:04:57.149Z,21.78
2022-09-09T13:07:27.524Z,21.81
2022-09-09T13:09:57.299Z,21.83
2022-09-09T13:12:27.559Z,21.91
2022-09-09T13:14:59.991Z,21.97
2022-09-09T13:17:32.679Z,21.99
2022-09-09T13:20:03.729Z,22.01
2022-09-09T13:22:37.219Z,22.08
2022-09-09T13:25:11.878Z,22.09
2022-09-09T13:27:44.392Z,22.11
2022-09-09T13:30:29.431Z,22.13
2022-09-09T13:33:26.833Z,22.12
2022-09-09T13:36:00.106Z,22.11
2022-09-09T13:38:31.911Z,22.14
2022-09-09T13:41:05.553Z,22.18
2022-09-09T13:43:38.767Z,22.20
2022-09-09T13:46:26.456Z,22.21
2022-09-09T13:49:03.284Z,22.21
2022-09-09T13:51:46.292Z,22.21
2022-09-09T13:54:17.809Z,22.19
2022-09-09T13:56:48.391Z,22.18
2022-09-09T13:59:20.820Z,22.21
2022-09-09T14:01:50.770Z,22.24
2022-09-09T14:04:23.673Z,22.24
2022-09-09T14:06:53.601Z,22.24
2022-09-09T14:09:23.300Z,22.21
2022-09-09T14:11:53.055Z,22.16
2022-09-09T14:14:22.862Z,22.12
2022-09-09T14:16:52.530Z,22.09
2022-09-09T14:19:24.921Z,22.03
2022-09-09T14:21:54.593Z,21.97
2022-09-09T14:24:24.612Z,21.94
2022-09-09T14:26:54.342Z,21.90
2022-09-09T14:29:24.033Z,21.83
2022-09-09T14:31:53.712Z,21.78
2022-09-09T14:34:25.972Z,21.73
2022-09-09T14:36:55.658Z,21.69
2022-09-09T14:39:25.344Z,21.66
2022-09-09T14:41:55.053Z,21.61
2022-09-09T14:44:24.789Z,21.56
2022-09-09T14:46:55.261Z,21.50
2022-09-09T14:49:27.605Z,21.43
2022-09-09T14:51:57.478Z,21.34
2022-09-09T14:54:27.209Z,21.25
2022-09-09T14:56:58.234Z,21.16
2022-09-09T14:59:28.156Z,21.09
2022-09-09T15:01:57.954Z,21.04
2022-09-09T15:04:30.315Z,21.03
2022-09-09T15:07:00.018Z,21.03
2022-09-09T15:09:30.315Z,21.02
2022-09-09T15:12:00.276Z,21.02
2022-09-09T15:14:30.105Z,21.05
2022-09-09T15:16:59.791Z,21.03
2022-09-09T15:19:33.341Z,20.99
2022-09-09T15:22:03.345Z,20.95
2022-09-09T15:24:33.017Z,20.95
2022-09-09T15:27:03.039Z,20.94
2022-09-09T15:29:32.750Z,20.97
2022-09-09T15:32:02.457Z,20.99
2022-09-09T15:34:34.921Z,21.02
2022-09-09T15:37:04.624Z,21.05
2022-09-09T15:39:38.612Z,21.08
2022-09-09T15:42:09.532Z,21.12
2022-09-09T15:44:45.667Z,21.22
2022-09-09T15:47:17.643Z,21.27
2022-09-09T15:49:49.922Z,21.31
2022-09-09T15:52:19.853Z,21.32
2022-09-09T15:54:49.651Z,21.33
2022-09-09T15:57:19.472Z,21.35
2022-09-09T15:59:49.399Z,21.36
2022-09-09T16:02:19.309Z,21.36
2022-09-09T16:04:51.661Z,21.37
2022-09-09T16:07:21.654Z,21.38
2022-09-09T16:09:52.544Z,21.41
2022-09-09T16:12:22.685Z,21.37
2022-09-09T16:14:52.408Z,21.35
2022-09-09T16:17:22.240Z,21.30
2022-09-09T16:19:55.388Z,21.29
2022-09-09T16:22:25.614Z,21.28
2022-09-09T16:24:55.319Z,21.26
2022-09-09T16:27:25.061Z,21.25
2022-09-09T16:29:54.949Z,21.23
2022-09-09T16:32:24.688Z,21.21
2022-09-09T16:34:57.349Z,21.20
2022-09-09T16:37:27.059Z,21.17
2022-09-09T16:39:56.835Z,21.15
2022-09-09T16:42:26.599Z,21.11
2022-09-09T16:44:56.609Z,21.09
2022-09-09T16:47:26.449Z,21.07
2022-09-09T16:49:58.812Z,21.06
2022-09-09T16:52:28.491Z,21.03
2022-09-09T16:54:58.152Z,21.02
2022-09-09T16:57:27.817Z,21.01
2022-09-09T17:00:00.384Z,20.99
2022-09-09T17:02:30.143Z,20.99
2022-09-09T17:05:02.878Z,20.97
2022-09-09T17:07:33.640Z,20.95
2022-09-09T17:10:03.327Z,20.93
2022-09-09T17:12:33.250Z,20.91
2022-09-09T17:15:04.224Z,20.88
2022-09-09T17:17:33.909Z,20.84
2022-09-09T17:20:08.219Z,20.80
2022-09-09T17:22:37.920Z,20.77
2022-09-09T17:25:08.669Z,20.73
2022-09-09T17:27:38.400Z,20.69
2022-09-09T17:30:10.314Z,20.65
2022-09-09T17:32:40.018Z,20.61
2022-09-09T17:35:13.133Z,20.57
2022-09-09T17:37:42.839Z,20.51
2022-09-09T17:40:13.089Z,20.45
2022-09-09T17:42:43.355Z,20.40
2022-09-09T17:45:13.770Z,20.36
2022-09-09T17:47:44.009Z,20.34
2022-09-09T17:50:16.510Z,20.27
2022-09-09T17:52:46.206Z,20.18
2022-09-09T17:55:16.877Z,20.10
2022-09-09T17:57:47.211Z,20.06
2022-09-09T18:00:17.608Z,20.03
2022-09-09T18:02:48.541Z,20.01
2022-09-09T18:05:21.444Z,19.97
2022-09-09T18:07:51.400Z,19.92
2022-09-09T18:10:21.136Z,19.85
2022-09-09T18:12:50.880Z,19.79
2022-09-09T18:15:39.153Z,19.76
2022-09-09T18:18:10.725Z,19.72
2022-09-09T18:20:44.407Z,19.71
2022-09-09T18:23:14.104Z,19.66
2022-09-09T18:25:44.481Z,19.62
2022-09-09T18:28:14.165Z,19.56
2022-09-09T18:30:44.012Z,19.50
2022-09-09T18:33:13.669Z,19.43
2022-09-09T18:35:48.467Z,19.36
2022-09-09T18:38:19.423Z,19.29
2022-09-09T18:40:49.101Z,19.24
2022-09-09T18:43:18.854Z,19.21
2022-09-09T18:45:48.524Z,19.17
2022-09-09T18:48:18.224Z,19.15
2022-09-09T18:50:50.630Z,19.15
2022-09-09T18:53:20.328Z,19.14
2022-09-09T18:55:50.052Z,19.13
2022-09-09T18:58:19.756Z,19.13
2022-09-09T19:00:49.506Z,19.13
2022-09-09T19:03:19.235Z,19.12
2022-09-09T19:05:51.849Z,19.14
2022-09-09T19:08:22.116Z,19.10
2022-09-09T19:10:52.455Z,19.10
2022-09-09T19:13:22.260Z,19.07
2022-09-09T19:15:52.302Z,19.07
2022-09-09T19:18:22.024Z,19.07
2022-09-09T19:20:54.301Z,19.09
2022-09-09T19:23:29.833Z,19.09
2022-09-09T19:26:06.312Z,19.07
2022-09-09T19:28:36.155Z,19.06
2022-09-09T19:31:07.476Z,19.07
2022-09-09T19:33:38.214Z,19.08
2022-09-09T19:36:11.126Z,19.07
2022-09-09T19:38:41.701Z,19.08
2022-09-09T19:41:13.447Z,19.08
2022-09-09T19:43:43.825Z,19.09
2022-09-09T19:46:15.654Z,19.10
2022-09-09T19:48:46.040Z,19.10
2022-09-09T19:51:21.716Z,19.09
2022-09-09T19:53:53.300Z,19.06
2022-09-09T19:56:25.256Z,19.02
2022-09-09T19:58:55.835Z,18.99
2022-09-09T20:01:27.347Z,18.95
2022-09-09T20:03:59.940Z,18.92
2022-09-09T20:06:35.291Z,18.91
2022-09-09T20:09:06.075Z,18.89
2022-09-09T20:11:36.512Z,18.87
2022-09-09T20:14:06.463Z,18.86
2022-09-09T20:16:37.133Z,18.84
2022-09-09T20:19:10.356Z,18.82
2022-09-09T20:21:47.514Z,18.79
2022-09-09T20:24:19.553Z,18.78
2022-09-09T20:26:50.000Z,18.74
2022-09-09T20:29:22.210Z,18.74
2022-09-09T20:31:52.098Z,18.74
2022-09-09T20:34:25.924Z,18.70
2022-09-09T20:36:59.394Z,18.66
2022-09-09T20:39:29.383Z,18.64
2022-09-09T20:41:59.572Z,18.63
2022-09-09T20:44:29.815Z,18.62
2022-09-09T20:47:02.941Z,18.56
2022-09-09T20:49:35.268Z,18.53
2022-09-09T20:52:07.675Z,18.51
2022-09-09T20:54:38.911Z,18.50
2022-09-09T20:57:08.787Z,18.46
2022-09-09T20:59:38.463Z,18.46
2022-09-09T21:02:08.270Z,18.47
2022-09-09T21:04:38.288Z,18.48
2022-09-09T21:07:10.556Z,18.47
2022-09-09T21:09:41.205Z,18.47
2022-09-09T21:12:11.488Z,18.49
2022-09-09T21:14:41.183Z,18.49
2022-09-09T21:17:10.849Z,18.46
2022-09-09T21:19:41.198Z,18.43
2022-09-09T21:22:14.374Z,18.44
2022-09-09T21:24:44.034Z,18.42
2022-09-09T21:27:13.667Z,18.41
2022-09-09T21:29:43.398Z,18.40
2022-09-09T21:32:13.084Z,18.40
2022-09-09T21:34:42.767Z,18.40
2022-09-09T21:37:15.032Z,18.39
2022-09-09T21:39:44.730Z,18.38
2022-09-09T21:42:14.809Z,18.39
2022-09-09T21:44:44.527Z,18.35
2022-09-09T21:47:16.178Z,18.35
2022-09-09T21:49:45.848Z,18.36
2022-09-09T21:52:19.035Z,18.37
2022-09-09T21:54:48.719Z,18.36
2022-09-09T21:57:22.958Z,18.33
2022-09-09T21:59:54.675Z,18.30
2022-09-09T22:02:24.770Z,18.30
2022-09-09T22:04:54.514Z,18.30
2022-09-09T22:07:26.760Z,18.29
2022-09-09T22:09:56.435Z,18.30
2022-09-09T22:12:26.100Z,18.29
2022-09-09T22:14:56.663Z,18.29
2022-09-09T22:17:26.336Z,18.26
2022-09-09T22:19:56.071Z,18.21
2022-09-09T22:22:28.379Z,18.21
2022-09-09T22:24:58.048Z,18.21
2022-09-09T22:27:27.818Z,18.21
2022-09-09T22:29:57.492Z,18.22
2022-09-09T22:32:27.223Z,18.22
2022-09-09T22:34:56.903Z,18.21
2022-09-09T22:37:29.198Z,18.20
2022-09-09T22:39:58.951Z,18.16
2022-09-09T22:42:28.634Z,18.12
2022-09-09T22:44:58.324Z,18.05
2022-09-09T22:47:28.143Z,18.00
2022-09-09T22:49:58.360Z,17.98
2022-09-09T22:52:31.923Z,17.98
2022-09-09T22:55:01.851Z,17.97
2022-09-09T22:57:31.589Z,17.98
2022-09-09T23:00:01.612Z,17.95
2022-09-09T23:02:31.667Z,17.90
2022-09-09T23:05:01.450Z,17.85
2022-09-09T23:07:33.791Z,17.81
2022-09-09T23:10:03.448Z,17.77
2022-09-09T23:12:33.200Z,17.76
2022-09-09T23:15:03.197Z,17.75
2022-09-09T23:17:34.457Z,17.77
2022-09-09T23:20:04.828Z,17.77
2022-09-09T23:22:37.205Z,17.74
2022-09-09T23:25:07.961Z,17.70
2022-09-09T23:27:38.717Z,17.62
2022-09-09T23:30:10.892Z,17.55
2022-09-09T23:32:40.559Z,17.53
2022-09-09T23:35:10.924Z,17.55
2022-09-09T23:37:43.221Z,17.57
2022-09-09T23:40:13.047Z,17.59
2022-09-09T23:42:42.762Z,17.59
2022-09-09T23:45:15.127Z,17.59
2022-09-09T23:47:44.759Z,17.61
2022-09-09T23:50:14.923Z,17.62
2022-09-09T23:52:47.256Z,17.65
2022-09-09T23:55:16.967Z,17.63
2022-09-09T23:57:46.652Z,17.61
